Create Custom Reports and Graphics: Custom Report

Modesto Jr College

Current Conditions

7/8/20 8:45 PM (-07:00)
Updated Every 15 Minutes
Temp 80.0 °F   2.9
RH 35 %   2
Dew Pt 49.8 °F   1.2
Wind Spd 4.1 mph
Wind Dir NW | 321 °
Wind Gust 9.0 mph   2.6
Latest Rain 0.00 In
Daily Rain 0.00 In
Daily Min Temp 52.5 °F   1.4
Daily Max Temp 92.8 °F   6.1

Last 24 Hours

Modesto Jr College

15 Minute Data | America/Los_Angeles
as of 7/8/20 8:48 PM PDT
Date & Time Temp (°F) RH (%) Dew Pt (°F) Wind Spd (mph) Wind Dir (°) Wind Gust (mph) Latest Rain (In) Daily Rain (In) Daily Min Temp (°F) Daily Max Temp (°F)
7/8/20 - 2045 80.0 35 49.8 4.1 NW | 321 9.0 0.00 0.00 52.5 92.8
7/8/20 - 2030 81.2 36 51.6 4.4 NW | 315 7.2 0.00 0.00 52.5 92.8
7/8/20 - 2015 82.7 35 52.4 5.4 WNW | 301 8.8 0.00 0.00 52.5 92.8
7/8/20 - 2000 84.2 34 53.0 4.9 WNW | 297 9.4 0.00 0.00 52.5 92.8
7/8/20 - 1945 85.8 32 52.6 5.7 WNW | 293 10.1 0.00 0.00 52.5 92.8
7/8/20 - 1930 87.3 30 52.4 6.0 WNW | 290 10.3 0.00 0.00 52.5 92.8
7/8/20 - 1915 88.7 31 54.3 6.6 WNW | 286 14.2 0.00 0.00 52.5 92.8
7/8/20 - 1900 89.8 30 54.4 6.2 WNW | 284 11.6 0.00 0.00 52.5 92.8
7/8/20 - 1845 90.8 29 54.2 6.3 WNW | 282 11.0 0.00 0.00 52.5 92.8
7/8/20 - 1830 91.3 28 53.9 6.9 WNW | 286 11.8 0.00 0.00 52.5 92.8
7/8/20 - 1815 91.7 29 54.5 6.1 WNW | 288 12.3 0.00 0.00 52.5 92.8
7/8/20 - 1800 91.4 27 52.8 5.0 NW | 310 8.8 0.00 0.00 52.5 92.8
7/8/20 - 1745 91.8 24 50.2 4.3 NW | 316 9.4 0.00 0.00 52.5 92.8
7/8/20 - 1730 91.0 25 49.7 4.4 NNW | 343 12.5 0.00 0.00 52.5 92.8
7/8/20 - 1715 90.5 25 49.6 5.8 N | 349 10.5 0.00 0.00 52.5 92.8
7/8/20 - 1700 90.6 29 53.6 5.0 N | 350 9.6 0.00 0.00 52.5 92.8
7/8/20 - 1645 90.9 27 52.6 5.7 NNW | 342 11.0 0.00 0.00 52.5 92.8
7/8/20 - 1630 91.4 29 54.2 5.1 NW | 321 10.1 0.00 0.00 52.5 92.8
7/8/20 - 1615 92.3 30 56.1 4.6 WNW | 290 10.1 0.00 0.00 52.5 92.8
7/8/20 - 1600 92.0 30 56.2 3.7 W | 261 10.5 0.00 0.00 52.5 92.7
7/8/20 - 1545 91.8 31 57.0 4.2 W | 267 9.4 0.00 0.00 52.5 92.2
7/8/20 - 1530 91.1 31 56.4 3.6 W | 278 11.0 0.00 0.00 52.5 91.7
7/8/20 - 1515 91.0 34 58.4 4.3 W | 264 10.7 0.00 0.00 52.5 91.7
7/8/20 - 1500 90.1 34 57.7 4.1 W | 274 9.4 0.00 0.00 52.5 91.0
7/8/20 - 1445 89.9 32 56.3 2.8 NW | 304 9.0 0.00 0.00 52.5 90.5
7/8/20 - 1430 89.4 33 56.2 3.8 WNW | 297 9.6 0.00 0.00 52.5 89.9
7/8/20 - 1415 88.6 36 58.0 3.0 NW | 307 7.9 0.00 0.00 52.5 89.1
7/8/20 - 1400 88.1 38 59.2 3.3 NNW | 330 8.3 0.00 0.00 52.5 88.8
7/8/20 - 1345 87.7 38 59.0 2.9 WNW | 286 7.7 0.00 0.00 52.5 88.8
7/8/20 - 1330 86.6 39 58.7 3.4 NNW | 329 7.7 0.00 0.00 52.5 87.2
7/8/20 - 1315 86.6 39 58.5 3.9 WNW | 293 7.2 0.00 0.00 52.5 87.2
7/8/20 - 1300 86.2 40 58.8 3.2 WSW | 258 7.2 0.00 0.00 52.5 86.7
7/8/20 - 1245 84.9 41 58.5 3.6 NW | 305 7.5 0.00 0.00 52.5 85.7
7/8/20 - 1230 85.1 40 57.8 4.2 W | 267 10.1 0.00 0.00 52.5 85.7
7/8/20 - 1215 84.1 40 57.2 4.9 W | 267 9.2 0.00 0.00 52.5 84.6
7/8/20 - 1200 82.7 41 56.7 4.6 WNW | 296 9.0 0.00 0.00 52.5 83.8
7/8/20 - 1145 82.4 40 56.0 5.0 W | 278 9.4 0.00 0.00 52.5 83.8
7/8/20 - 1130 81.1 42 56.0 5.5 W | 281 9.9 0.00 0.00 52.5 81.7
7/8/20 - 1115 80.0 42 54.7 4.8 WNW | 290 10.3 0.00 0.00 52.5 80.6
7/8/20 - 1100 79.5 42 54.5 5.7 WNW | 289 10.1 0.00 0.00 52.5 80.3
7/8/20 - 1045 78.8 43 54.6 5.5 WNW | 297 9.4 0.00 0.00 52.5 79.6
7/8/20 - 1030 78.4 44 54.6 4.8 WNW | 284 9.6 0.00 0.00 52.5 79.2
7/8/20 - 1015 76.2 47 54.5 4.8 NW | 315 9.2 0.00 0.00 52.5 77.4
7/8/20 - 1000 76.2 48 54.9 5.5 NW | 310 9.6 0.00 0.00 52.5 77.4
7/8/20 - 0945 75.7 48 54.4 4.6 NW | 311 9.4 0.00 0.00 52.5 76.8
7/8/20 - 0930 75.2 49 54.6 3.9 WNW | 303 6.8 0.00 0.00 52.5 75.9
7/8/20 - 0915 73.9 50 54.0 3.5 NW | 309 7.0 0.00 0.00 52.5 74.8
7/8/20 - 0900 72.5 52 54.0 4.1 NW | 313 8.1 0.00 0.00 52.5 73.6
7/8/20 - 0845 70.6 55 53.5 3.9 NW | 321 6.6 0.00 0.00 52.5 72.2
7/8/20 - 0830 69.9 56 53.6 3.4 NNW | 328 5.5 0.00 0.00 52.5 70.4
7/8/20 - 0815 69.0 58 53.7 3.1 NW | 313 5.7 0.00 0.00 52.5 70.3
7/8/20 - 0800 68.2 59 53.2 3.1 NW | 316 5.9 0.00 0.00 52.5 69.9
7/8/20 - 0745 68.6 59 53.8 2.1 NW | 325 4.6 0.00 0.00 52.5 69.9
7/8/20 - 0730 67.5 62 54.1 0.7 W | 263 3.1 0.00 0.00 52.5 69.4
7/8/20 - 0715 64.8 68 53.9 1.2 WSW | 245 2.6 0.00 0.00 52.5 65.9
7/8/20 - 0700 63.1 69 52.9 0.1 WSW | 246 1.1 0.00 0.00 52.5 64.3
7/8/20 - 0645 59.5 78 52.5 0.0 N | 0 0.0 0.00 0.00 52.5 62.9
7/8/20 - 0630 55.9 85 51.3 0.5 W | 279 1.5 0.00 0.00 52.5 62.9
7/8/20 - 0615 54.2 90 51.3 0.0 N | 0 0.0 0.00 0.00 52.5 62.9
7/8/20 - 0600 53.7 89 50.6 0.0 N | 0 0.0 0.00 0.00 52.5 62.9
7/8/20 - 0545 53.1 89 50.1 0.2 W | 279 1.5 0.00 0.00 52.5 62.9
7/8/20 - 0530 53.1 88 49.5 0.2 NNE | 12 1.3 0.00 0.00 52.6 62.9
7/8/20 - 0515 53.9 88 50.3 0.2 NNE | 27 1.1 0.00 0.00 53.4 62.9
7/8/20 - 0500 54.5 87 50.6 0.0 N | 0 0.0 0.00 0.00 54.2 62.9
7/8/20 - 0445 54.9 85 50.3 0.1 NNE | 27 0.9 0.00 0.00 54.4 62.9
7/8/20 - 0430 55.4 82 49.9 0.5 N | 5 1.1 0.00 0.00 55.0 62.9
7/8/20 - 0415 55.7 78 49.0 0.6 WSW | 258 1.8 0.00 0.00 55.0 62.9
7/8/20 - 0400 56.1 77 49.2 1.5 WSW | 254 3.1 0.00 0.00 55.7 62.9
7/8/20 - 0345 56.2 77 49.1 1.6 WSW | 249 3.1 0.00 0.00 55.7 62.9
7/8/20 - 0330 56.3 76 48.9 1.6 W | 265 3.5 0.00 0.00 56.0 62.9
7/8/20 - 0315 56.9 70 47.4 1.9 WSW | 242 3.1 0.00 0.00 56.2 62.9
7/8/20 - 0300 58.7 64 46.5 0.6 W | 273 1.5 0.00 0.00 57.5 62.9
7/8/20 - 0245 60.4 60 46.3 0.1 NNE | 31 1.5 0.00 0.00 59.0 62.9
7/8/20 - 0230 61.6 58 46.5 2.1 NNE | 15 4.6 0.00 0.00 59.0 62.9
7/8/20 - 0215 59.6 63 47.2 2.9 N | 8 4.4 0.00 0.00 59.0 62.9
7/8/20 - 0200 59.4 68 48.7 1.2 N | 7 3.3 0.00 0.00 59.0 62.9
7/8/20 - 0145 60.8 66 49.2 0.5 N | 352 2.2 0.00 0.00 59.8 62.9
7/8/20 - 0130 62.1 60 48.2 2.3 N | 10 3.1 0.00 0.00 61.5 62.9
7/8/20 - 0115 62.6 60 48.4 1.9 NNE | 23 2.8 0.00 0.00 62.2 62.9
7/8/20 - 0100 62.4 61 48.9 2.0 NE | 37 3.1 0.00 0.00 51.1 86.7
7/8/20 - 0045 61.8 61 48.2 2.4 NNE | 31 3.7 0.00 0.00 51.1 86.7
7/8/20 - 0030 61.0 61 47.6 1.8 NNE | 31 3.3 0.00 0.00 51.1 86.7
7/8/20 - 0015 61.4 61 47.6 1.0 N | 358 2.0 0.00 0.00 51.1 86.7
7/8/20 - 0000 62.5 58 47.4 1.2 NNE | 32 2.6 0.00 0.00 51.1 86.7
7/7/20 - 2345 62.3 59 47.9 0.0 N | 0 0.0 0.00 0.00 51.1 86.7
7/7/20 - 2330 64.0 54 47.3 0.2 NNE | 19 0.9 0.00 0.00 51.1 86.7
7/7/20 - 2315 66.0 51 47.2 0.3 N | 354 1.3 0.00 0.00 51.1 86.7
7/7/20 - 2300 67.4 48 47.2 1.3 WNW | 300 3.1 0.00 0.00 51.1 86.7
7/7/20 - 2245 67.9 49 48.1 2.5 NW | 306 4.2 0.00 0.00 51.1 86.7
7/7/20 - 2230 68.8 50 49.5 1.9 WNW | 297 3.9 0.00 0.00 51.1 86.7
7/7/20 - 2215 70.1 48 49.6 2.7 WNW | 290 4.4 0.00 0.00 51.1 86.7
7/7/20 - 2200 70.5 48 50.1 2.8 WNW | 286 4.2 0.00 0.00 51.1 86.7
7/7/20 - 2145 71.8 48 51.1 2.1 WNW | 299 4.2 0.00 0.00 51.1 86.7
7/7/20 - 2130 72.9 45 50.3 3.4 WNW | 290 5.7 0.00 0.00 51.1 86.7
7/7/20 - 2115 73.8 44 50.7 4.2 WNW | 290 7.7 0.00 0.00 51.1 86.7
7/7/20 - 2100 75.1 42 50.5 4.4 WNW | 288 7.5 0.00 0.00 51.1 86.7
7/7/20 - 2045 77.1 37 48.6 3.2 WNW | 292 6.4 0.00 0.00 51.1 86.7
Max 92.3 90 59.2 6.9 - 14.2 0.00 0.00 62.2 92.8
Avg 74.0 50 52.3 3.1 - 6.3 0.00 - - -
Min 53.1 24 46.3 0.0 - 0.0 0.00 0.00 51.1 62.9
Total - - - - - - 0.00 - - -

Last 7 Days

Modesto Jr College

Daily Data | America/Los_Angeles
as of 7/8/20 8:48 PM PDT
Date Daily ETo (in)
7/7/20 0.244
7/6/20 0.291
7/5/20 0.281
7/4/20 0.253
7/3/20 0.226
7/2/20 0.218
7/1/20 0.244
Max 0.291
Min 0.218